Terminal Aerodrome Forecast
Issued by NWS

Home | Current Version | Previous Version | Text Only | Print | Product List | Glossary On
Versions: 1 2 3 4 5 6 7 8 9 10 11 12 13 14 15 16 17 18 19
000
FTUS41 KBOX 251743
TAFHYA
TAF
KHYA 251743Z 2518/2618 03010KT P6SM OVC035
     FM252000 04008KT P6SM VCSH OVC035
     FM260000 04006KT P6SM BKN035
     FM260700 04004KT P6SM SCT250
     FM261500 08010KT P6SM BKN060=

USA.gov is the U.S. government's official web portal to all federal, state and local government web resources and services.